sensor_id;sensor_type;location;lat;lon;timestamp;temperature;humidity
64987;DHT22;67903;52.108;9.358;2023-02-28T00:00:12;-0.10;75.00
64987;DHT22;67903;52.108;9.358;2023-02-28T00:02:42;-0.10;74.70
64987;DHT22;67903;52.108;9.358;2023-02-28T00:05:10;-0.10;74.50
64987;DHT22;67903;52.108;9.358;2023-02-28T00:07:38;-0.10;74.50
64987;DHT22;67903;52.108;9.358;2023-02-28T00:10:06;-0.10;74.50
64987;DHT22;67903;52.108;9.358;2023-02-28T00:12:34;-0.10;74.70
64987;DHT22;67903;52.108;9.358;2023-02-28T00:15:05;-0.10;74.50
64987;DHT22;67903;52.108;9.358;2023-02-28T00:17:32;-0.10;74.60
64987;DHT22;67903;52.108;9.358;2023-02-28T00:19:59;-0.10;74.40
64987;DHT22;67903;52.108;9.358;2023-02-28T00:22:50;-0.10;74.20
64987;DHT22;67903;52.108;9.358;2023-02-28T00:25:20;-0.10;74.50
64987;DHT22;67903;52.108;9.358;2023-02-28T00:27:47;-0.10;74.70
64987;DHT22;67903;52.108;9.358;2023-02-28T00:30:20;-0.10;74.70
64987;DHT22;67903;52.108;9.358;2023-02-28T00:32:48;-0.10;74.70
64987;DHT22;67903;52.108;9.358;2023-02-28T00:35:15;-0.10;74.80
64987;DHT22;67903;52.108;9.358;2023-02-28T00:37:42;-0.10;74.80
64987;DHT22;67903;52.108;9.358;2023-02-28T00:40:09;-0.20;74.90
64987;DHT22;67903;52.108;9.358;2023-02-28T00:42:38;-0.20;75.30
64987;DHT22;67903;52.108;9.358;2023-02-28T00:45:07;-0.10;75.50
64987;DHT22;67903;52.108;9.358;2023-02-28T00:47:37;-0.20;75.60
64987;DHT22;67903;52.108;9.358;2023-02-28T00:50:05;-0.30;76.00
64987;DHT22;67903;52.108;9.358;2023-02-28T00:52:32;-0.30;76.30
64987;DHT22;67903;52.108;9.358;2023-02-28T00:54:59;-0.40;76.80
64987;DHT22;67903;52.108;9.358;2023-02-28T00:57:26;-0.40;77.20
64987;DHT22;67903;52.108;9.358;2023-02-28T00:59:53;-0.50;77.30
64987;DHT22;67903;52.108;9.358;2023-02-28T01:02:22;-0.60;77.10
64987;DHT22;67903;52.108;9.358;2023-02-28T01:04:51;-0.70;76.90
64987;DHT22;67903;52.108;9.358;2023-02-28T01:07:18;-0.70;76.90
64987;DHT22;67903;52.108;9.358;2023-02-28T01:09:45;-0.70;76.90
64987;DHT22;67903;52.108;9.358;2023-02-28T01:12:12;-0.70;76.90
64987;DHT22;67903;52.108;9.358;2023-02-28T01:14:39;-0.70;77.00
64987;DHT22;67903;52.108;9.358;2023-02-28T01:17:06;-0.90;76.90
64987;DHT22;67903;52.108;9.358;2023-02-28T01:19:33;-0.90;77.00
64987;DHT22;67903;52.108;9.358;2023-02-28T01:22:02;-0.90;77.10
64987;DHT22;67903;52.108;9.358;2023-02-28T01:24:29;-1.00;77.00
64987;DHT22;67903;52.108;9.358;2023-02-28T01:26:55;-1.10;77.30
64987;DHT22;67903;52.108;9.358;2023-02-28T01:29:22;-1.00;77.50
64987;DHT22;67903;52.108;9.358;2023-02-28T01:31:49;-1.00;77.60
64987;DHT22;67903;52.108;9.358;2023-02-28T01:34:16;-1.00;77.50
64987;DHT22;67903;52.108;9.358;2023-02-28T01:36:45;-1.10;77.60
64987;DHT22;67903;52.108;9.358;2023-02-28T01:39:12;-1.10;77.80
64987;DHT22;67903;52.108;9.358;2023-02-28T01:41:39;-1.10;78.00
64987;DHT22;67903;52.108;9.358;2023-02-28T01:47:12;-1.30;78.90
64987;DHT22;67903;52.108;9.358;2023-02-28T01:49:39;-1.30;79.00
64987;DHT22;67903;52.108;9.358;2023-02-28T01:52:06;-1.30;79.10
64987;DHT22;67903;52.108;9.358;2023-02-28T01:54:34;-1.30;79.30
64987;DHT22;67903;52.108;9.358;2023-02-28T01:57:14;-1.30;79.50
64987;DHT22;67903;52.108;9.358;2023-02-28T01:59:50;-1.30;79.40
64987;DHT22;67903;52.108;9.358;2023-02-28T02:02:20;-1.40;79.50
64987;DHT22;67903;52.108;9.358;2023-02-28T02:04:58;-1.50;79.70
64987;DHT22;67903;52.108;9.358;2023-02-28T02:07:31;-1.50;79.70
64987;DHT22;67903;52.108;9.358;2023-02-28T02:10:13;-1.60;80.00
64987;DHT22;67903;52.108;9.358;2023-02-28T02:18:39;-1.60;80.10
64987;DHT22;67903;52.108;9.358;2023-02-28T02:21:54;-1.50;79.90
64987;DHT22;67903;52.108;9.358;2023-02-28T02:27:21;-1.60;79.80
64987;DHT22;67903;52.108;9.358;2023-02-28T02:30:00;-1.70;80.00
64987;DHT22;67903;52.108;9.358;2023-02-28T02:40:57;-1.80;80.00
64987;DHT22;67903;52.108;9.358;2023-02-28T02:43:50;-1.80;79.80
64987;DHT22;67903;52.108;9.358;2023-02-28T02:46:48;-1.80;79.50
64987;DHT22;67903;52.108;9.358;2023-02-28T02:49:31;-1.90;79.80
64987;DHT22;67903;52.108;9.358;2023-02-28T02:52:04;-1.90;79.90
64987;DHT22;67903;52.108;9.358;2023-02-28T02:54:37;-2.00;79.80
64987;DHT22;67903;52.108;9.358;2023-02-28T02:57:08;-2.00;79.90
64987;DHT22;67903;52.108;9.358;2023-02-28T02:59:39;-2.10;79.90
64987;DHT22;67903;52.108;9.358;2023-02-28T03:02:08;-2.10;80.00
64987;DHT22;67903;52.108;9.358;2023-02-28T03:04:42;-2.10;80.00
64987;DHT22;67903;52.108;9.358;2023-02-28T03:07:10;-2.10;80.00
64987;DHT22;67903;52.108;9.358;2023-02-28T03:09:36;-2.10;80.00
64987;DHT22;67903;52.108;9.358;2023-02-28T03:12:09;-2.10;79.90
64987;DHT22;67903;52.108;9.358;2023-02-28T03:22:56;-2.20;79.80
64987;DHT22;67903;52.108;9.358;2023-02-28T03:28:15;-2.30;80.40
64987;DHT22;67903;52.108;9.358;2023-02-28T03:30:52;-2.20;80.40
64987;DHT22;67903;52.108;9.358;2023-02-28T03:33:24;-2.20;79.70
64987;DHT22;67903;52.108;9.358;2023-02-28T03:35:58;-2.30;79.40
64987;DHT22;67903;52.108;9.358;2023-02-28T03:38:48;-2.30;79.40
64987;DHT22;67903;52.108;9.358;2023-02-28T03:41:20;-2.20;79.60
64987;DHT22;67903;52.108;9.358;2023-02-28T03:44:06;-2.30;79.60
64987;DHT22;67903;52.108;9.358;2023-02-28T03:46:37;-2.30;79.60
64987;DHT22;67903;52.108;9.358;2023-02-28T03:49:13;-2.40;79.90
64987;DHT22;67903;52.108;9.358;2023-02-28T03:51:41;-2.40;80.00
64987;DHT22;67903;52.108;9.358;2023-02-28T03:54:13;-2.40;80.00
64987;DHT22;67903;52.108;9.358;2023-02-28T03:57:07;-2.40;80.10
64987;DHT22;67903;52.108;9.358;2023-02-28T03:59:39;-2.40;80.20
64987;DHT22;67903;52.108;9.358;2023-02-28T04:02:08;-2.40;79.50
64987;DHT22;67903;52.108;9.358;2023-02-28T04:04:35;-2.50;79.60
64987;DHT22;67903;52.108;9.358;2023-02-28T04:07:07;-2.40;79.80
64987;DHT22;67903;52.108;9.358;2023-02-28T04:09:35;-2.50;79.90
64987;DHT22;67903;52.108;9.358;2023-02-28T04:12:02;-2.60;80.20
64987;DHT22;67903;52.108;9.358;2023-02-28T04:14:28;-2.70;80.30
64987;DHT22;67903;52.108;9.358;2023-02-28T04:16:55;-2.70;80.50
64987;DHT22;67903;52.108;9.358;2023-02-28T04:19:22;-2.70;80.50
64987;DHT22;67903;52.108;9.358;2023-02-28T04:21:51;-2.80;80.60
64987;DHT22;67903;52.108;9.358;2023-02-28T04:24:24;-2.80;80.70
64987;DHT22;67903;52.108;9.358;2023-02-28T04:26:53;-2.90;80.90
64987;DHT22;67903;52.108;9.358;2023-02-28T04:29:24;-2.80;81.00
64987;DHT22;67903;52.108;9.358;2023-02-28T04:31:51;-3.00;81.00
64987;DHT22;67903;52.108;9.358;2023-02-28T04:34:20;-3.00;81.20
64987;DHT22;67903;52.108;9.358;2023-02-28T04:36:48;-3.00;81.40
64987;DHT22;67903;52.108;9.358;2023-02-28T04:39:36;-3.00;81.50
64987;DHT22;67903;52.108;9.358;2023-02-28T04:42:04;-3.10;81.50
64987;DHT22;67903;52.108;9.358;2023-02-28T04:44:30;-3.10;81.50
64987;DHT22;67903;52.108;9.358;2023-02-28T04:46:58;-3.10;81.50
64987;DHT22;67903;52.108;9.358;2023-02-28T04:49:25;-3.10;81.40
64987;DHT22;67903;52.108;9.358;2023-02-28T04:51:52;-3.00;81.50
64987;DHT22;67903;52.108;9.358;2023-02-28T04:54:19;-3.00;81.20
64987;DHT22;67903;52.108;9.358;2023-02-28T04:56:46;-3.00;81.10
64987;DHT22;67903;52.108;9.358;2023-02-28T04:59:15;-3.00;81.20
64987;DHT22;67903;52.108;9.358;2023-02-28T05:01:46;-3.00;81.20
64987;DHT22;67903;52.108;9.358;2023-02-28T05:04:13;-3.00;81.30
64987;DHT22;67903;52.108;9.358;2023-02-28T05:06:40;-3.00;81.00
64987;DHT22;67903;52.108;9.358;2023-02-28T05:09:07;-3.00;81.10
64987;DHT22;67903;52.108;9.358;2023-02-28T05:11:34;-3.10;81.20
64987;DHT22;67903;52.108;9.358;2023-02-28T05:14:03;-3.10;81.40
64987;DHT22;67903;52.108;9.358;2023-02-28T05:16:31;-3.10;81.50
64987;DHT22;67903;52.108;9.358;2023-02-28T05:18:58;-3.10;81.70
64987;DHT22;67903;52.108;9.358;2023-02-28T05:21:30;-3.10;81.80
64987;DHT22;67903;52.108;9.358;2023-02-28T05:24:02;-3.10;81.90
64987;DHT22;67903;52.108;9.358;2023-02-28T05:26:30;-3.00;81.70
64987;DHT22;67903;52.108;9.358;2023-02-28T05:28:57;-3.00;81.40
64987;DHT22;67903;52.108;9.358;2023-02-28T05:31:24;-3.00;81.50
64987;DHT22;67903;52.108;9.358;2023-02-28T05:33:51;-3.00;81.50
64987;DHT22;67903;52.108;9.358;2023-02-28T05:36:18;-3.00;81.30
64987;DHT22;67903;52.108;9.358;2023-02-28T05:38:49;-3.00;81.40
64987;DHT22;67903;52.108;9.358;2023-02-28T05:41:17;-3.10;81.50
64987;DHT22;67903;52.108;9.358;2023-02-28T05:43:46;-3.10;81.60
64987;DHT22;67903;52.108;9.358;2023-02-28T05:46:13;-3.10;81.60
64987;DHT22;67903;52.108;9.358;2023-02-28T05:48:41;-3.10;81.50
64987;DHT22;67903;52.108;9.358;2023-02-28T05:51:09;-3.20;81.50
64987;DHT22;67903;52.108;9.358;2023-02-28T05:53:36;-3.10;81.50
64987;DHT22;67903;52.108;9.358;2023-02-28T05:56:03;-3.10;81.40
64987;DHT22;67903;52.108;9.358;2023-02-28T05:58:30;-3.10;81.10
64987;DHT22;67903;52.108;9.358;2023-02-28T06:00:58;-3.10;81.00
64987;DHT22;67903;52.108;9.358;2023-02-28T06:03:26;-3.10;80.80
64987;DHT22;67903;52.108;9.358;2023-02-28T06:05:53;-3.00;80.70
64987;DHT22;67903;52.108;9.358;2023-02-28T06:08:20;-3.00;80.50
64987;DHT22;67903;52.108;9.358;2023-02-28T06:10:47;-3.10;80.70
64987;DHT22;67903;52.108;9.358;2023-02-28T06:13:14;-3.10;80.60
64987;DHT22;67903;52.108;9.358;2023-02-28T06:15:41;-3.10;80.80
64987;DHT22;67903;52.108;9.358;2023-02-28T06:18:08;-3.10;80.70
64987;DHT22;67903;52.108;9.358;2023-02-28T06:20:35;-3.20;80.80
64987;DHT22;67903;52.108;9.358;2023-02-28T06:23:03;-3.10;81.10
64987;DHT22;67903;52.108;9.358;2023-02-28T06:25:30;-3.00;80.90
64987;DHT22;67903;52.108;9.358;2023-02-28T06:27:57;-3.00;80.90
64987;DHT22;67903;52.108;9.358;2023-02-28T06:30:24;-2.90;80.70
64987;DHT22;67903;52.108;9.358;2023-02-28T06:32:54;-2.80;80.10
64987;DHT22;67903;52.108;9.358;2023-02-28T06:35:21;-2.70;79.70
64987;DHT22;67903;52.108;9.358;2023-02-28T06:37:48;-2.60;79.90
64987;DHT22;67903;52.108;9.358;2023-02-28T06:40:16;-2.60;79.50
64987;DHT22;67903;52.108;9.358;2023-02-28T06:42:43;-2.60;79.00
64987;DHT22;67903;52.108;9.358;2023-02-28T06:45:11;-2.60;78.70
64987;DHT22;67903;52.108;9.358;2023-02-28T06:47:39;-2.60;79.00
64987;DHT22;67903;52.108;9.358;2023-02-28T06:50:08;-2.50;78.80
64987;DHT22;67903;52.108;9.358;2023-02-28T06:52:35;-2.60;78.70
64987;DHT22;67903;52.108;9.358;2023-02-28T06:55:07;-2.60;78.80
64987;DHT22;67903;52.108;9.358;2023-02-28T06:57:35;-2.60;79.10
64987;DHT22;67903;52.108;9.358;2023-02-28T07:00:08;-2.70;79.00
64987;DHT22;67903;52.108;9.358;2023-02-28T07:02:38;-2.70;79.50
64987;DHT22;67903;52.108;9.358;2023-02-28T07:05:06;-2.70;79.80
64987;DHT22;67903;52.108;9.358;2023-02-28T07:07:32;-2.80;79.60
64987;DHT22;67903;52.108;9.358;2023-02-28T07:09:59;-2.80;79.70
64987;DHT22;67903;52.108;9.358;2023-02-28T07:12:26;-2.80;80.00
64987;DHT22;67903;52.108;9.358;2023-02-28T07:14:53;-2.80;79.50
64987;DHT22;67903;52.108;9.358;2023-02-28T07:17:22;-2.90;79.50
64987;DHT22;67903;52.108;9.358;2023-02-28T07:19:49;-2.90;79.50
64987;DHT22;67903;52.108;9.358;2023-02-28T07:22:16;-3.00;79.30
64987;DHT22;67903;52.108;9.358;2023-02-28T07:24:42;-2.90;79.20
64987;DHT22;67903;52.108;9.358;2023-02-28T07:27:09;-2.90;79.10
64987;DHT22;67903;52.108;9.358;2023-02-28T07:29:36;-2.90;79.10
64987;DHT22;67903;52.108;9.358;2023-02-28T07:32:04;-2.80;78.70
64987;DHT22;67903;52.108;9.358;2023-02-28T07:34:31;-2.80;78.50
64987;DHT22;67903;52.108;9.358;2023-02-28T07:36:57;-2.80;78.00
64987;DHT22;67903;52.108;9.358;2023-02-28T07:39:24;-2.80;78.10
64987;DHT22;67903;52.108;9.358;2023-02-28T07:41:51;-2.80;78.30
64987;DHT22;67903;52.108;9.358;2023-02-28T07:44:19;-2.80;78.60
64987;DHT22;67903;52.108;9.358;2023-02-28T07:46:47;-2.70;78.80
64987;DHT22;67903;52.108;9.358;2023-02-28T07:49:14;-2.70;78.60
64987;DHT22;67903;52.108;9.358;2023-02-28T07:51:41;-2.60;78.40
64987;DHT22;67903;52.108;9.358;2023-02-28T07:54:08;-2.50;78.10
64987;DHT22;67903;52.108;9.358;2023-02-28T07:56:35;-2.50;77.90
64987;DHT22;67903;52.108;9.358;2023-02-28T07:59:01;-2.50;77.90
64987;DHT22;67903;52.108;9.358;2023-02-28T08:01:28;-2.50;77.90
64987;DHT22;67903;52.108;9.358;2023-02-28T08:03:55;-2.50;78.20
64987;DHT22;67903;52.108;9.358;2023-02-28T08:06:24;-2.50;78.20
64987;DHT22;67903;52.108;9.358;2023-02-28T08:08:53;-2.50;78.00
64987;DHT22;67903;52.108;9.358;2023-02-28T08:11:20;-2.50;78.00
64987;DHT22;67903;52.108;9.358;2023-02-28T08:13:46;-2.50;77.90
64987;DHT22;67903;52.108;9.358;2023-02-28T08:16:14;-2.40;78.10
64987;DHT22;67903;52.108;9.358;2023-02-28T08:18:44;-2.30;77.60
64987;DHT22;67903;52.108;9.358;2023-02-28T08:21:11;-2.10;78.00
64987;DHT22;67903;52.108;9.358;2023-02-28T08:23:38;-1.90;77.20
64987;DHT22;67903;52.108;9.358;2023-02-28T08:26:05;-1.60;76.90
64987;DHT22;67903;52.108;9.358;2023-02-28T08:28:33;-1.40;76.40
64987;DHT22;67903;52.108;9.358;2023-02-28T08:31:00;-1.30;75.30
64987;DHT22;67903;52.108;9.358;2023-02-28T08:33:27;-1.20;74.30
64987;DHT22;67903;52.108;9.358;2023-02-28T08:35:55;-1.20;74.60
64987;DHT22;67903;52.108;9.358;2023-02-28T08:38:23;-1.20;74.40
64987;DHT22;67903;52.108;9.358;2023-02-28T08:40:57;-1.20;74.40
64987;DHT22;67903;52.108;9.358;2023-02-28T08:43:25;-1.30;74.50
64987;DHT22;67903;52.108;9.358;2023-02-28T08:45:55;-1.30;74.70
64987;DHT22;67903;52.108;9.358;2023-02-28T08:48:24;-1.10;74.30
64987;DHT22;67903;52.108;9.358;2023-02-28T08:51:03;-1.00;73.60
64987;DHT22;67903;52.108;9.358;2023-02-28T08:53:34;-1.00;73.10
64987;DHT22;67903;52.108;9.358;2023-02-28T08:56:04;-1.00;73.20
64987;DHT22;67903;52.108;9.358;2023-02-28T08:58:32;-0.90;72.90
64987;DHT22;67903;52.108;9.358;2023-02-28T09:01:00;-1.00;72.70
64987;DHT22;67903;52.108;9.358;2023-02-28T09:03:27;-0.90;72.30
64987;DHT22;67903;52.108;9.358;2023-02-28T09:05:55;-0.70;71.60
64987;DHT22;67903;52.108;9.358;2023-02-28T09:08:24;-0.60;71.20
64987;DHT22;67903;52.108;9.358;2023-02-28T09:10:51;-0.50;70.20
64987;DHT22;67903;52.108;9.358;2023-02-28T09:13:18;-0.40;69.90
64987;DHT22;67903;52.108;9.358;2023-02-28T09:15:45;-0.30;69.50
64987;DHT22;67903;52.108;9.358;2023-02-28T09:18:12;-0.20;68.20
64987;DHT22;67903;52.108;9.358;2023-02-28T09:20:41;0.00;67.50
64987;DHT22;67903;52.108;9.358;2023-02-28T09:23:09;0.00;67.50
64987;DHT22;67903;52.108;9.358;2023-02-28T09:25:37;0.20;66.70
64987;DHT22;67903;52.108;9.358;2023-02-28T09:28:04;0.40;65.90
64987;DHT22;67903;52.108;9.358;2023-02-28T09:30:30;0.60;64.30
64987;DHT22;67903;52.108;9.358;2023-02-28T09:32:57;0.70;64.30
64987;DHT22;67903;52.108;9.358;2023-02-28T09:35:24;0.80;64.00
64987;DHT22;67903;52.108;9.358;2023-02-28T09:37:53;0.80;64.50
64987;DHT22;67903;52.108;9.358;2023-02-28T09:40:24;0.80;64.20
64987;DHT22;67903;52.108;9.358;2023-02-28T09:42:55;0.80;64.40
64987;DHT22;67903;52.108;9.358;2023-02-28T09:45:33;0.80;64.70
64987;DHT22;67903;52.108;9.358;2023-02-28T09:48:14;0.90;64.80
64987;DHT22;67903;52.108;9.358;2023-02-28T09:53:34;1.10;63.70
64987;DHT22;67903;52.108;9.358;2023-02-28T09:56:08;1.10;63.70
64987;DHT22;67903;52.108;9.358;2023-02-28T09:58:44;1.20;63.30
64987;DHT22;67903;52.108;9.358;2023-02-28T10:04:42;1.50;63.40
64987;DHT22;67903;52.108;9.358;2023-02-28T10:09:52;1.40;63.20
64987;DHT22;67903;52.108;9.358;2023-02-28T10:12:21;1.40;63.60
64987;DHT22;67903;52.108;9.358;2023-02-28T10:14:51;1.50;63.10
64987;DHT22;67903;52.108;9.358;2023-02-28T10:17:28;1.50;62.70
64987;DHT22;67903;52.108;9.358;2023-02-28T10:20:01;1.70;62.60
64987;DHT22;67903;52.108;9.358;2023-02-28T10:22:53;1.70;62.50
64987;DHT22;67903;52.108;9.358;2023-02-28T10:25:28;1.80;62.80
64987;DHT22;67903;52.108;9.358;2023-02-28T10:30:48;1.80;62.00
64987;DHT22;67903;52.108;9.358;2023-02-28T10:33:33;2.00;61.60
64987;DHT22;67903;52.108;9.358;2023-02-28T10:36:04;2.00;60.20
64987;DHT22;67903;52.108;9.358;2023-02-28T10:38:38;2.10;60.00
64987;DHT22;67903;52.108;9.358;2023-02-28T10:41:10;2.20;59.70
64987;DHT22;67903;52.108;9.358;2023-02-28T10:43:39;2.20;59.20
64987;DHT22;67903;52.108;9.358;2023-02-28T10:48:41;2.30;59.80
64987;DHT22;67903;52.108;9.358;2023-02-28T10:51:14;2.40;59.60
64987;DHT22;67903;52.108;9.358;2023-02-28T10:53:51;2.40;60.00
64987;DHT22;67903;52.108;9.358;2023-02-28T10:56:27;2.50;59.80
64987;DHT22;67903;52.108;9.358;2023-02-28T11:01:43;2.90;59.30
64987;DHT22;67903;52.108;9.358;2023-02-28T11:06:57;3.00;58.70
64987;DHT22;67903;52.108;9.358;2023-02-28T11:09:36;3.10;58.60
64987;DHT22;67903;52.108;9.358;2023-02-28T11:12:07;3.10;58.00
64987;DHT22;67903;52.108;9.358;2023-02-28T11:14:49;3.30;57.50
64987;DHT22;67903;52.108;9.358;2023-02-28T11:17:24;3.60;57.10
64987;DHT22;67903;52.108;9.358;2023-02-28T11:20:04;3.80;56.40
64987;DHT22;67903;52.108;9.358;2023-02-28T11:22:37;4.00;56.20
64987;DHT22;67903;52.108;9.358;2023-02-28T11:25:22;4.10;55.40
64987;DHT22;67903;52.108;9.358;2023-02-28T11:27:52;4.00;54.00
64987;DHT22;67903;52.108;9.358;2023-02-28T11:30:31;3.90;53.40
64987;DHT22;67903;52.108;9.358;2023-02-28T11:33:13;4.00;53.50
64987;DHT22;67903;52.108;9.358;2023-02-28T11:35:45;3.90;54.30
64987;DHT22;67903;52.108;9.358;2023-02-28T11:38:12;4.10;54.30
64987;DHT22;67903;52.108;9.358;2023-02-28T11:43:38;4.20;52.00
64987;DHT22;67903;52.108;9.358;2023-02-28T11:46:14;4.00;53.10
64987;DHT22;67903;52.108;9.358;2023-02-28T11:54:44;4.00;52.10
64987;DHT22;67903;52.108;9.358;2023-02-28T11:57:30;4.00;52.80
64987;DHT22;67903;52.108;9.358;2023-02-28T12:03:11;3.90;52.10
64987;DHT22;67903;52.108;9.358;2023-02-28T12:05:48;3.70;52.20
64987;DHT22;67903;52.108;9.358;2023-02-28T12:14:39;3.90;52.10
64987;DHT22;67903;52.108;9.358;2023-02-28T12:17:16;3.90;51.00
64987;DHT22;67903;52.108;9.358;2023-02-28T12:23:10;4.10;51.40
64987;DHT22;67903;52.108;9.358;2023-02-28T12:25:55;4.00;51.60
64987;DHT22;67903;52.108;9.358;2023-02-28T12:28:30;3.90;52.30
64987;DHT22;67903;52.108;9.358;2023-02-28T12:31:11;3.80;51.90
64987;DHT22;67903;52.108;9.358;2023-02-28T12:33:51;3.70;52.40
64987;DHT22;67903;52.108;9.358;2023-02-28T12:36:19;3.90;52.50
64987;DHT22;67903;52.108;9.358;2023-02-28T12:38:56;3.90;52.50
64987;DHT22;67903;52.108;9.358;2023-02-28T12:41:47;4.00;52.50
64987;DHT22;67903;52.108;9.358;2023-02-28T12:44:35;4.00;52.70
64987;DHT22;67903;52.108;9.358;2023-02-28T12:47:05;4.10;52.50
64987;DHT22;67903;52.108;9.358;2023-02-28T12:50:01;4.20;52.20
64987;DHT22;67903;52.108;9.358;2023-02-28T13:01:36;4.10;52.00
64987;DHT22;67903;52.108;9.358;2023-02-28T13:07:21;3.90;51.10
64987;DHT22;67903;52.108;9.358;2023-02-28T13:09:57;3.90;51.70
64987;DHT22;67903;52.108;9.358;2023-02-28T13:12:25;3.90;51.80
64987;DHT22;67903;52.108;9.358;2023-02-28T13:15:07;3.90;51.70
64987;DHT22;67903;52.108;9.358;2023-02-28T13:17:39;3.90;51.60
64987;DHT22;67903;52.108;9.358;2023-02-28T13:20:37;4.10;51.30
64987;DHT22;67903;52.108;9.358;2023-02-28T13:26:13;4.30;50.40
64987;DHT22;67903;52.108;9.358;2023-02-28T13:47:45;4.10;51.80
64987;DHT22;67903;52.108;9.358;2023-02-28T13:55:34;3.90;52.60
64987;DHT22;67903;52.108;9.358;2023-02-28T13:58:54;3.70;52.70
64987;DHT22;67903;52.108;9.358;2023-02-28T14:01:05;3.70;52.60
64987;DHT22;67903;52.108;9.358;2023-02-28T14:04:29;3.60;52.30
64987;DHT22;67903;52.108;9.358;2023-02-28T14:06:29;3.60;52.70
64987;DHT22;67903;52.108;9.358;2023-02-28T14:09:15;3.50;52.70
64987;DHT22;67903;52.108;9.358;2023-02-28T14:11:44;3.50;53.20
64987;DHT22;67903;52.108;9.358;2023-02-28T14:17:15;3.60;53.50
64987;DHT22;67903;52.108;9.358;2023-02-28T14:19:45;3.70;53.70
64987;DHT22;67903;52.108;9.358;2023-02-28T14:22:39;3.60;53.80
64987;DHT22;67903;52.108;9.358;2023-02-28T14:25:22;3.70;53.70
64987;DHT22;67903;52.108;9.358;2023-02-28T14:28:13;3.70;53.70
64987;DHT22;67903;52.108;9.358;2023-02-28T14:33:50;3.60;54.00
64987;DHT22;67903;52.108;9.358;2023-02-28T14:36:39;3.70;53.40
64987;DHT22;67903;52.108;9.358;2023-02-28T14:41:36;3.70;52.60
64987;DHT22;67903;52.108;9.358;2023-02-28T14:44:24;3.70;53.20
64987;DHT22;67903;52.108;9.358;2023-02-28T14:46:57;3.70;53.00
64987;DHT22;67903;52.108;9.358;2023-02-28T14:52:07;3.70;53.10
64987;DHT22;67903;52.108;9.358;2023-02-28T14:54:39;3.70;52.90
64987;DHT22;67903;52.108;9.358;2023-02-28T14:57:30;3.70;53.70
64987;DHT22;67903;52.108;9.358;2023-02-28T15:00:46;3.80;52.70
64987;DHT22;67903;52.108;9.358;2023-02-28T15:02:49;3.70;52.70
64987;DHT22;67903;52.108;9.358;2023-02-28T15:05:22;3.70;52.60
64987;DHT22;67903;52.108;9.358;2023-02-28T15:08:11;3.60;53.20
64987;DHT22;67903;52.108;9.358;2023-02-28T15:10:44;3.60;53.00
64987;DHT22;67903;52.108;9.358;2023-02-28T15:13:13;3.60;53.50
64987;DHT22;67903;52.108;9.358;2023-02-28T15:15:54;3.60;53.70
64987;DHT22;67903;52.108;9.358;2023-02-28T15:21:07;3.60;52.70
64987;DHT22;67903;52.108;9.358;2023-02-28T15:23:36;3.50;53.40
64987;DHT22;67903;52.108;9.358;2023-02-28T15:26:04;3.50;53.30
64987;DHT22;67903;52.108;9.358;2023-02-28T15:28:31;3.50;53.30
64987;DHT22;67903;52.108;9.358;2023-02-28T15:31:02;3.50;53.60
64987;DHT22;67903;52.108;9.358;2023-02-28T15:33:31;3.50;53.40
64987;DHT22;67903;52.108;9.358;2023-02-28T15:36:10;3.50;53.40
64987;DHT22;67903;52.108;9.358;2023-02-28T15:38:38;3.50;53.50
64987;DHT22;67903;52.108;9.358;2023-02-28T15:41:25;3.40;53.30
64987;DHT22;67903;52.108;9.358;2023-02-28T15:44:22;3.30;53.40
64987;DHT22;67903;52.108;9.358;2023-02-28T15:47:05;3.30;53.40
64987;DHT22;67903;52.108;9.358;2023-02-28T15:49:49;3.30;53.80
64987;DHT22;67903;52.108;9.358;2023-02-28T15:52:21;3.30;54.10
64987;DHT22;67903;52.108;9.358;2023-02-28T15:54:49;3.20;54.40
64987;DHT22;67903;52.108;9.358;2023-02-28T15:57:24;3.30;53.90
64987;DHT22;67903;52.108;9.358;2023-02-28T15:59:57;3.30;53.90
64987;DHT22;67903;52.108;9.358;2023-02-28T16:02:36;3.20;54.30
64987;DHT22;67903;52.108;9.358;2023-02-28T16:07:43;3.10;54.10
64987;DHT22;67903;52.108;9.358;2023-02-28T16:10:12;3.10;54.10
64987;DHT22;67903;52.108;9.358;2023-02-28T16:12:41;3.00;54.10
64987;DHT22;67903;52.108;9.358;2023-02-28T16:15:21;3.00;54.20
64987;DHT22;67903;52.108;9.358;2023-02-28T16:17:48;3.00;54.00
64987;DHT22;67903;52.108;9.358;2023-02-28T16:20:27;2.90;53.70
64987;DHT22;67903;52.108;9.358;2023-02-28T16:22:54;3.00;53.90
64987;DHT22;67903;52.108;9.358;2023-02-28T16:25:26;2.90;54.40
64987;DHT22;67903;52.108;9.358;2023-02-28T16:27:54;2.80;53.90
64987;DHT22;67903;52.108;9.358;2023-02-28T16:30:24;2.90;53.80
64987;DHT22;67903;52.108;9.358;2023-02-28T16:32:53;2.80;53.90
64987;DHT22;67903;52.108;9.358;2023-02-28T16:35:21;2.80;54.00
64987;DHT22;67903;52.108;9.358;2023-02-28T16:37:50;2.70;54.50
64987;DHT22;67903;52.108;9.358;2023-02-28T16:40:22;2.70;54.50
64987;DHT22;67903;52.108;9.358;2023-02-28T16:42:52;2.70;53.70
64987;DHT22;67903;52.108;9.358;2023-02-28T16:45:25;2.60;54.30
64987;DHT22;67903;52.108;9.358;2023-02-28T16:47:53;2.60;53.70
64987;DHT22;67903;52.108;9.358;2023-02-28T16:50:25;2.60;53.50
64987;DHT22;67903;52.108;9.358;2023-02-28T16:52:53;2.50;54.00
64987;DHT22;67903;52.108;9.358;2023-02-28T16:55:22;2.50;54.20
64987;DHT22;67903;52.108;9.358;2023-02-28T16:57:55;2.40;54.50
64987;DHT22;67903;52.108;9.358;2023-02-28T17:00:23;2.40;54.40
64987;DHT22;67903;52.108;9.358;2023-02-28T17:02:50;2.40;54.30
64987;DHT22;67903;52.108;9.358;2023-02-28T17:05:17;2.40;54.30
64987;DHT22;67903;52.108;9.358;2023-02-28T17:07:45;2.30;54.60
64987;DHT22;67903;52.108;9.358;2023-02-28T17:10:16;2.20;55.30
64987;DHT22;67903;52.108;9.358;2023-02-28T17:12:43;2.10;54.80
64987;DHT22;67903;52.108;9.358;2023-02-28T17:15:12;2.10;55.20
64987;DHT22;67903;52.108;9.358;2023-02-28T17:17:40;2.00;55.70
64987;DHT22;67903;52.108;9.358;2023-02-28T17:20:18;1.90;56.00
64987;DHT22;67903;52.108;9.358;2023-02-28T17:22:55;1.80;56.30
64987;DHT22;67903;52.108;9.358;2023-02-28T17:25:23;1.80;56.10
64987;DHT22;67903;52.108;9.358;2023-02-28T17:27:50;1.80;56.10
64987;DHT22;67903;52.108;9.358;2023-02-28T17:30:25;1.70;56.30
64987;DHT22;67903;52.108;9.358;2023-02-28T17:32:56;1.60;56.40
64987;DHT22;67903;52.108;9.358;2023-02-28T17:35:23;1.50;56.60
64987;DHT22;67903;52.108;9.358;2023-02-28T17:37:50;1.40;57.00
64987;DHT22;67903;52.108;9.358;2023-02-28T17:40:20;1.40;57.40
64987;DHT22;67903;52.108;9.358;2023-02-28T17:42:49;1.30;57.40
64987;DHT22;67903;52.108;9.358;2023-02-28T17:45:18;1.20;57.80
64987;DHT22;67903;52.108;9.358;2023-02-28T17:47:48;1.10;58.80
64987;DHT22;67903;52.108;9.358;2023-02-28T17:50:20;1.00;58.80
64987;DHT22;67903;52.108;9.358;2023-02-28T17:52:47;1.00;59.20
64987;DHT22;67903;52.108;9.358;2023-02-28T17:55:15;1.00;59.20
64987;DHT22;67903;52.108;9.358;2023-02-28T17:57:41;1.00;59.00
64987;DHT22;67903;52.108;9.358;2023-02-28T18:00:17;0.90;59.30
64987;DHT22;67903;52.108;9.358;2023-02-28T18:02:44;0.80;59.70
64987;DHT22;67903;52.108;9.358;2023-02-28T18:05:11;0.80;60.20
64987;DHT22;67903;52.108;9.358;2023-02-28T18:07:39;0.80;60.50
64987;DHT22;67903;52.108;9.358;2023-02-28T18:10:17;0.80;60.90
64987;DHT22;67903;52.108;9.358;2023-02-28T18:12:47;0.60;61.20